createdAt,value
2024-05-09T00:01:18.010Z,58.10
2024-05-09T00:03:48.552Z,58.80
2024-05-09T00:06:18.748Z,58.86
2024-05-09T00:08:51.580Z,59.16
2024-05-09T00:11:23.024Z,59.54
2024-05-09T00:13:53.346Z,59.61
2024-05-09T00:16:23.547Z,59.86
2024-05-09T00:18:54.380Z,59.94
2024-05-09T00:21:24.596Z,60.40
2024-05-09T00:23:57.417Z,60.87
2024-05-09T00:26:27.634Z,60.50
2024-05-09T00:28:57.946Z,60.59
2024-05-09T00:31:28.390Z,61.36
2024-05-09T00:33:58.655Z,60.90
2024-05-09T00:36:28.909Z,61.04
2024-05-09T00:39:01.711Z,61.84
2024-05-09T00:41:31.883Z,61.96
2024-05-09T00:44:02.720Z,62.36
2024-05-09T00:46:32.916Z,62.20
2024-05-09T00:49:03.946Z,62.56
2024-05-09T00:51:34.276Z,62.54
2024-05-09T00:54:07.962Z,62.78
2024-05-09T00:56:38.598Z,63.10
2024-05-09T00:59:09.433Z,63.70
2024-05-09T01:01:39.828Z,63.37
2024-05-09T01:04:11.415Z,63.67
2024-05-09T01:06:41.850Z,63.46
2024-05-09T01:09:14.971Z,63.46
2024-05-09T01:11:45.235Z,63.49
2024-05-09T01:14:15.618Z,63.54
2024-05-09T01:16:46.073Z,63.66
2024-05-09T01:19:25.873Z,63.57
2024-05-09T01:21:56.228Z,63.66
2024-05-09T01:24:29.062Z,63.64
2024-05-09T01:26:59.232Z,63.74
2024-05-09T01:29:29.610Z,63.71
2024-05-09T01:32:00.936Z,63.77
2024-05-09T01:34:31.172Z,63.98
2024-05-09T01:37:01.363Z,64.15
2024-05-09T01:39:34.186Z,63.96
2024-05-09T01:42:04.396Z,63.70
2024-05-09T01:44:34.624Z,63.77
2024-05-09T01:47:05.512Z,63.80
2024-05-09T01:49:38.899Z,64.09
2024-05-09T01:52:09.347Z,63.65
2024-05-09T01:54:42.195Z,63.88
2024-05-09T01:57:12.346Z,64.09
2024-05-09T01:59:42.520Z,64.31
2024-05-09T02:02:12.831Z,64.13
2024-05-09T02:04:43.383Z,64.62
2024-05-09T02:07:13.695Z,64.26
2024-05-09T02:09:46.578Z,64.39
2024-05-09T02:12:16.936Z,64.94
2024-05-09T02:14:47.209Z,64.89
2024-05-09T02:17:17.456Z,65.23
2024-05-09T02:19:47.742Z,65.46
2024-05-09T02:22:17.935Z,65.19
2024-05-09T02:24:50.774Z,65.13
2024-05-09T02:27:20.939Z,65.29
2024-05-09T02:29:51.164Z,65.38
2024-05-09T02:32:21.390Z,66.06
2024-05-09T02:34:51.810Z,66.51
2024-05-09T02:37:19.403Z,66.74
2024-05-09T02:39:52.194Z,67.24
2024-05-09T02:42:19.729Z,67.28
2024-05-09T02:44:49.917Z,67.24
2024-05-09T02:47:17.530Z,67.54
2024-05-09T02:49:47.861Z,67.85
2024-05-09T02:52:17.526Z,68.51
2024-05-09T02:54:47.972Z,68.54
2024-05-09T02:57:18.143Z,67.97
2024-05-09T02:59:48.327Z,68.16
2024-05-09T03:02:15.965Z,68.15
2024-05-09T03:04:46.510Z,68.61
2024-05-09T03:07:14.283Z,68.79
2024-05-09T03:09:48.827Z,69.20
2024-05-09T03:12:19.139Z,69.43
2024-05-09T03:14:52.711Z,69.31
2024-05-09T03:17:20.537Z,69.36
2024-05-09T03:19:50.821Z,69.15
2024-05-09T03:22:18.406Z,69.14
2024-05-09T03:24:48.564Z,69.13
2024-05-09T03:27:18.880Z,69.17
2024-05-09T03:29:49.032Z,69.23
2024-05-09T03:32:16.726Z,68.91
2024-05-09T03:34:46.971Z,69.36
2024-05-09T03:37:17.156Z,69.03
2024-05-09T03:39:47.387Z,68.89
2024-05-09T03:42:17.529Z,69.39
2024-05-09T03:44:50.344Z,69.07
2024-05-09T03:47:17.972Z,69.40
2024-05-09T03:49:48.185Z,69.88
2024-05-09T03:52:15.847Z,69.65
2024-05-09T03:54:49.181Z,69.68
2024-05-09T03:57:16.900Z,69.49
2024-05-09T03:59:47.082Z,69.61
2024-05-09T04:02:17.346Z,69.65
2024-05-09T04:04:47.605Z,70.09
2024-05-09T04:07:15.163Z,70.39
2024-05-09T04:09:45.343Z,70.08
2024-05-09T04:12:12.978Z,70.28
2024-05-09T04:14:43.183Z,70.08
2024-05-09T04:17:10.871Z,70.54
2024-05-09T04:19:43.748Z,70.63
2024-05-09T04:22:11.704Z,70.43
2024-05-09T04:24:41.854Z,70.61
2024-05-09T04:27:09.397Z,70.57
2024-05-09T04:29:40.046Z,70.48
2024-05-09T04:32:08.372Z,70.30
2024-05-09T04:34:39.510Z,70.86
2024-05-09T04:37:09.766Z,70.97
2024-05-09T04:39:39.915Z,70.52
2024-05-09T04:42:07.433Z,70.58
2024-05-09T04:44:37.655Z,70.83
2024-05-09T04:47:05.342Z,70.94
2024-05-09T04:49:35.773Z,70.42
2024-05-09T04:52:03.557Z,69.85
2024-05-09T04:54:36.886Z,69.78
2024-05-09T04:57:07.387Z,69.93
2024-05-09T04:59:36.321Z,69.88
2024-05-09T05:02:06.885Z,69.91
2024-05-09T05:04:34.716Z,70.26
2024-05-09T05:07:04.860Z,70.31
2024-05-09T05:09:35.077Z,70.10
2024-05-09T05:12:25.246Z,69.74
2024-05-09T05:14:52.958Z,69.56
2024-05-09T05:17:23.274Z,69.44
2024-05-09T05:19:51.077Z,69.39
2024-05-09T05:22:21.352Z,69.11
2024-05-09T05:24:51.518Z,69.04
2024-05-09T05:27:21.823Z,69.36
2024-05-09T05:29:49.360Z,68.55
2024-05-09T05:32:19.795Z,68.58
2024-05-09T05:34:47.564Z,68.61
2024-05-09T05:37:17.722Z,69.00
2024-05-09T05:39:45.262Z,68.62
2024-05-09T05:42:18.329Z,68.45
2024-05-09T05:44:45.852Z,68.26
2024-05-09T05:47:16.030Z,68.17
2024-05-09T05:49:43.617Z,68.24
2024-05-09T05:52:13.899Z,68.01
2024-05-09T05:54:41.464Z,67.25
2024-05-09T05:57:11.794Z,67.07
2024-05-09T05:59:41.993Z,67.07
2024-05-09T06:02:13.923Z,67.27
2024-05-09T06:04:42.506Z,66.52
2024-05-09T06:07:12.854Z,66.48
2024-05-09T06:09:40.421Z,66.08
2024-05-09T06:12:10.938Z,66.03
2024-05-09T06:14:38.636Z,66.34
2024-05-09T06:17:11.699Z,65.56
2024-05-09T06:19:39.579Z,65.15
2024-05-09T06:22:11.085Z,64.87
2024-05-09T06:24:38.656Z,64.56
2024-05-09T06:27:08.827Z,63.79
2024-05-09T06:29:38.417Z,63.86
2024-05-09T06:32:11.628Z,63.12
2024-05-09T06:34:39.352Z,62.78
2024-05-09T06:37:09.520Z,62.67
2024-05-09T06:39:37.109Z,63.12
2024-05-09T06:42:07.483Z,62.59
2024-05-09T06:44:35.133Z,62.01
2024-05-09T06:47:05.580Z,61.69
2024-05-09T06:49:37.661Z,60.81
2024-05-09T06:52:08.776Z,60.81
2024-05-09T06:54:37.676Z,60.63
2024-05-09T06:57:08.037Z,59.96
2024-05-09T06:59:35.610Z,59.73
2024-05-09T07:02:06.406Z,59.49
2024-05-09T07:04:37.024Z,59.11
2024-05-09T07:07:09.333Z,59.19
2024-05-09T07:09:37.607Z,58.33
2024-05-09T07:12:08.704Z,57.81
2024-05-09T07:14:38.147Z,58.66
2024-05-09T07:17:08.995Z,57.72
2024-05-09T07:19:39.526Z,57.86
2024-05-09T07:22:09.855Z,57.70
2024-05-09T07:24:37.606Z,56.91
2024-05-09T07:27:08.173Z,55.84
2024-05-09T07:29:38.547Z,55.40
2024-05-09T07:32:09.338Z,55.00
2024-05-09T07:34:39.679Z,55.10
2024-05-09T07:37:12.764Z,54.48
2024-05-09T07:39:40.657Z,54.74
2024-05-09T07:42:10.920Z,53.79
2024-05-09T07:44:38.581Z,53.10
2024-05-09T07:48:14.691Z,53.49
2024-05-09T07:51:33.090Z,53.13
2024-05-09T07:53:35.269Z,52.21
2024-05-09T07:55:37.745Z,51.65
2024-05-09T07:58:08.706Z,52.72
2024-05-09T08:00:36.384Z,52.37
2024-05-09T08:03:07.106Z,51.63
2024-05-09T08:05:38.247Z,52.26
2024-05-09T08:08:09.124Z,51.71
2024-05-09T08:10:36.764Z,50.87
2024-05-09T08:13:07.444Z,50.94
2024-05-09T08:15:35.147Z,50.59
2024-05-09T08:18:05.501Z,50.03
2024-05-09T08:20:35.299Z,50.40
2024-05-09T08:23:08.898Z,50.04
2024-05-09T08:25:36.520Z,49.61
2024-05-09T08:28:07.286Z,49.81
2024-05-09T08:30:37.347Z,49.41
2024-05-09T08:33:09.106Z,48.64
2024-05-09T08:35:36.753Z,48.69
2024-05-09T08:38:10.440Z,49.21
2024-05-09T08:40:38.585Z,48.57
2024-05-09T08:43:12.139Z,48.48
2024-05-09T08:45:44.157Z,48.52
2024-05-09T08:48:17.007Z,46.84
2024-05-09T08:50:45.666Z,46.73
2024-05-09T08:53:18.850Z,46.52
2024-05-09T08:55:47.080Z,45.40
2024-05-09T08:58:20.023Z,45.27
2024-05-09T09:00:49.360Z,44.11
2024-05-09T09:03:21.160Z,41.96
2024-05-09T09:05:55.015Z,43.07
2024-05-09T09:08:29.090Z,44.20
2024-05-09T09:10:58.614Z,44.41
2024-05-09T09:13:29.022Z,43.94
2024-05-09T09:15:59.159Z,44.18
2024-05-09T09:18:30.943Z,43.39
2024-05-09T09:20:59.034Z,43.50
2024-05-09T09:23:32.008Z,43.67
2024-05-09T09:25:59.814Z,43.54
2024-05-09T09:28:30.349Z,42.43
2024-05-09T09:31:01.989Z,40.13
2024-05-09T09:33:36.074Z,41.07
2024-05-09T09:36:06.955Z,41.67
2024-05-09T09:38:42.396Z,40.16
2024-05-09T09:41:10.921Z,39.57
2024-05-09T09:43:42.231Z,40.95
2024-05-09T09:46:12.840Z,40.59
2024-05-09T09:48:45.337Z,40.56
2024-05-09T09:51:15.179Z,40.68
2024-05-09T09:53:50.152Z,39.73
2024-05-09T09:56:18.588Z,40.12
2024-05-09T09:58:50.934Z,40.16
2024-05-09T10:01:18.768Z,40.17
2024-05-09T10:03:49.187Z,41.15
2024-05-09T10:06:18.184Z,39.35
2024-05-09T10:08:51.732Z,39.84
2024-05-09T10:11:20.505Z,40.07
2024-05-09T10:13:50.853Z,40.22
2024-05-09T10:16:21.538Z,39.31
2024-05-09T10:18:52.169Z,39.38
2024-05-09T10:21:20.488Z,38.74
2024-05-09T10:24:04.782Z,36.81
2024-05-09T10:26:33.323Z,37.36
2024-05-09T10:29:04.708Z,36.19
2024-05-09T10:31:32.534Z,36.64
2024-05-09T10:34:03.621Z,35.32
2024-05-09T10:36:31.360Z,35.45
2024-05-09T10:39:05.468Z,34.67
2024-05-09T10:41:33.191Z,34.22
2024-05-09T10:44:03.430Z,33.03
2024-05-09T10:46:31.078Z,33.00
2024-05-09T10:49:05.302Z,33.56
2024-05-09T10:51:35.292Z,33.48
2024-05-09T10:54:08.256Z,33.20
2024-05-09T10:56:35.929Z,31.98
2024-05-09T10:59:06.474Z,31.91
2024-05-09T11:01:34.384Z,31.44
2024-05-09T11:04:05.087Z,32.21
2024-05-09T11:06:35.085Z,30.42
2024-05-09T11:09:08.801Z,31.18
2024-05-09T11:11:36.529Z,31.02
2024-05-09T11:14:14.878Z,31.08
2024-05-09T11:16:42.426Z,31.34
2024-05-09T11:19:15.486Z,31.35
2024-05-09T11:21:43.336Z,29.70
2024-05-09T11:24:16.526Z,29.93
2024-05-09T11:26:44.147Z,29.81
2024-05-09T11:29:17.106Z,29.51
2024-05-09T11:31:46.826Z,30.75
2024-05-09T11:34:17.758Z,30.38
2024-05-09T11:36:45.532Z,29.44
2024-05-09T11:39:18.566Z,29.71
2024-05-09T11:41:46.153Z,29.62
2024-05-09T11:44:16.487Z,30.40
2024-05-09T11:46:44.158Z,29.58
2024-05-09T11:49:14.486Z,29.40
2024-05-09T11:51:42.129Z,29.26
2024-05-09T11:54:12.346Z,28.33
2024-05-09T11:56:42.988Z,28.66
2024-05-09T11:59:13.387Z,28.50
2024-05-09T12:01:41.287Z,28.45
2024-05-09T12:04:12.057Z,27.96
2024-05-09T12:06:40.102Z,28.55
2024-05-09T12:09:10.415Z,28.43
2024-05-09T12:11:38.042Z,28.56
2024-05-09T12:14:10.877Z,29.13
2024-05-09T12:16:38.663Z,29.37
2024-05-09T12:19:09.243Z,28.80
2024-05-09T12:21:37.299Z,28.22
2024-05-09T12:24:07.681Z,28.92
2024-05-09T12:26:35.654Z,28.17
2024-05-09T12:29:05.893Z,28.65
2024-05-09T12:31:36.130Z,27.78
2024-05-09T12:34:06.426Z,27.97
2024-05-09T12:36:34.263Z,27.23
2024-05-09T12:39:06.280Z,27.57
2024-05-09T12:41:33.882Z,27.53
2024-05-09T12:44:04.052Z,27.32
2024-05-09T12:46:31.991Z,27.02
2024-05-09T12:49:05.174Z,26.00
2024-05-09T12:51:32.958Z,25.45
2024-05-09T12:54:03.243Z,25.65
2024-05-09T12:56:30.807Z,25.40
2024-05-09T12:59:01.093Z,26.49
2024-05-09T13:01:28.828Z,26.18
2024-05-09T13:03:59.300Z,26.03
2024-05-09T13:06:29.717Z,24.96
2024-05-09T13:09:00.107Z,25.12
2024-05-09T13:11:27.791Z,25.14
2024-05-09T13:13:58.248Z,25.97
2024-05-09T13:16:26.181Z,25.52
2024-05-09T13:18:56.450Z,25.02
2024-05-09T13:21:24.118Z,23.86
2024-05-09T13:23:58.354Z,24.46
2024-05-09T13:26:27.720Z,24.20
2024-05-09T13:28:58.011Z,24.88
2024-05-09T13:31:25.730Z,25.33
2024-05-09T13:33:56.276Z,25.93
2024-05-09T13:36:24.202Z,26.06
2024-05-09T13:38:57.368Z,25.21
2024-05-09T13:41:24.958Z,24.93
2024-05-09T13:43:55.954Z,25.30
2024-05-09T13:46:23.859Z,25.91
2024-05-09T13:48:54.419Z,25.51
2024-05-09T13:51:22.209Z,26.09
2024-05-09T13:56:22.487Z,26.50
2024-05-09T13:58:52.864Z,26.24
2024-05-09T14:01:20.657Z,25.25
2024-05-09T14:03:51.456Z,26.11
2024-05-09T14:06:19.230Z,25.82
2024-05-09T14:08:49.620Z,25.86
2024-05-09T14:11:17.304Z,25.62
2024-05-09T14:13:50.282Z,25.25
2024-05-09T14:16:18.341Z,27.02
2024-05-09T14:18:48.714Z,26.42
2024-05-09T14:21:16.337Z,27.52
2024-05-09T14:23:46.651Z,26.33
2024-05-09T14:26:14.339Z,26.74
2024-05-09T14:28:44.603Z,26.72
2024-05-09T14:31:14.844Z,26.60
2024-05-09T14:33:45.255Z,26.57
2024-05-09T14:36:12.985Z,26.24
2024-05-09T14:38:43.265Z,27.26
2024-05-09T14:41:13.186Z,27.46
2024-05-09T14:43:43.384Z,27.72
2024-05-09T14:46:11.056Z,27.57
2024-05-09T14:48:44.409Z,28.02
2024-05-09T14:51:12.112Z,28.52
2024-05-09T14:53:42.693Z,28.93
2024-05-09T14:56:10.378Z,28.41
2024-05-09T14:58:40.666Z,29.01
2024-05-09T15:01:08.439Z,29.73
2024-05-09T15:03:38.898Z,28.78
2024-05-09T15:06:09.328Z,29.37
2024-05-09T15:08:39.840Z,28.98
2024-05-09T15:11:07.508Z,29.08
2024-05-09T15:13:37.856Z,28.12
2024-05-09T15:16:06.279Z,28.00
2024-05-09T15:18:36.871Z,28.83
2024-05-09T15:21:09.177Z,29.45
2024-05-09T15:23:39.462Z,28.72
2024-05-09T15:26:07.229Z,28.92
2024-05-09T15:28:37.442Z,29.19
2024-05-09T15:31:05.332Z,29.82
2024-05-09T15:33:35.711Z,29.71
2024-05-09T15:36:03.594Z,30.85
2024-05-09T15:38:37.237Z,31.49
2024-05-09T15:41:05.238Z,30.09
2024-05-09T15:43:35.790Z,30.45
2024-05-09T15:46:03.552Z,30.05
2024-05-09T15:48:34.197Z,30.10
2024-05-09T15:51:02.105Z,30.50
2024-05-09T15:53:32.332Z,30.32
2024-05-09T15:56:02.642Z,31.36
2024-05-09T15:58:32.891Z,31.46
2024-05-09T16:01:00.646Z,31.72
2024-05-09T16:03:31.306Z,31.67
2024-05-09T16:05:59.185Z,31.63
2024-05-09T16:08:29.709Z,31.28
2024-05-09T16:10:57.630Z,31.17
2024-05-09T16:13:30.697Z,31.39
2024-05-09T16:15:58.550Z,31.33
2024-05-09T16:18:28.999Z,30.83
2024-05-09T16:21:00.332Z,31.28
2024-05-09T16:23:31.122Z,31.34
2024-05-09T16:25:58.821Z,31.78
2024-05-09T16:28:33.017Z,31.07
2024-05-09T16:31:01.536Z,31.65
2024-05-09T16:33:32.130Z,31.97
2024-05-09T16:36:00.170Z,32.71
2024-05-09T16:38:30.446Z,32.33
2024-05-09T16:40:58.275Z,32.75
2024-05-09T16:43:31.334Z,32.59
2024-05-09T16:45:59.048Z,32.97
2024-05-09T16:48:30.472Z,32.17
2024-05-09T16:51:03.006Z,33.12
2024-05-09T16:53:34.234Z,33.13
2024-05-09T16:56:02.328Z,33.45
2024-05-09T16:58:35.283Z,33.51
2024-05-09T17:01:03.236Z,33.52
2024-05-09T17:03:34.072Z,33.54
2024-05-09T17:06:03.314Z,33.76
2024-05-09T17:08:33.885Z,34.14
2024-05-09T17:11:01.809Z,34.30
2024-05-09T17:13:32.490Z,33.79
2024-05-09T17:16:05.570Z,34.40
2024-05-09T17:18:36.042Z,34.29
2024-05-09T17:21:03.802Z,34.30
2024-05-09T17:23:35.019Z,34.42
2024-05-09T17:26:02.989Z,34.59
2024-05-09T17:28:33.460Z,33.90
2024-05-09T17:31:07.597Z,33.80
2024-05-09T17:33:35.118Z,33.99
2024-05-09T17:36:05.371Z,34.17
2024-05-09T17:38:33.139Z,34.32
2024-05-09T17:41:03.321Z,34.80
2024-05-09T17:43:31.184Z,33.88
2024-05-09T17:46:01.742Z,33.44
2024-05-09T17:48:32.214Z,33.62
2024-05-09T17:51:02.730Z,34.48
2024-05-09T17:53:30.269Z,33.55
2024-05-09T17:56:01.516Z,33.54
2024-05-09T17:58:29.694Z,33.47
2024-05-09T18:01:00.139Z,32.61
2024-05-09T18:03:28.156Z,33.66
2024-05-09T18:06:01.256Z,33.00
2024-05-09T18:08:28.882Z,33.61
2024-05-09T18:10:59.347Z,33.81
2024-05-09T18:13:27.308Z,34.33
2024-05-09T18:15:57.661Z,34.41
2024-05-09T18:18:25.481Z,34.21
2024-05-09T18:20:55.876Z,35.19
2024-05-09T18:23:26.231Z,34.75
2024-05-09T18:25:57.108Z,35.47
2024-05-09T18:28:25.372Z,35.26
2024-05-09T18:30:55.818Z,36.14
2024-05-09T18:33:24.587Z,35.89
2024-05-09T18:35:55.126Z,36.62
2024-05-09T18:38:26.991Z,36.74
2024-05-09T18:40:57.546Z,37.03
2024-05-09T18:43:31.130Z,37.29
2024-05-09T18:46:06.567Z,37.29
2024-05-09T18:48:34.481Z,37.92
2024-05-09T18:51:05.603Z,38.33
2024-05-09T18:53:35.872Z,38.36
2024-05-09T18:56:06.237Z,38.51
2024-05-09T18:58:34.062Z,38.73
2024-05-09T19:01:04.624Z,38.38
2024-05-09T19:03:32.684Z,38.29
2024-05-09T19:06:03.316Z,38.59
2024-05-09T19:08:30.942Z,39.00
2024-05-09T19:11:04.050Z,38.94
2024-05-09T19:13:32.011Z,39.05
2024-05-09T19:16:02.407Z,39.29
2024-05-09T19:18:30.854Z,39.29
2024-05-09T19:21:01.535Z,39.39
2024-05-09T19:23:29.320Z,39.90
2024-05-09T19:25:59.810Z,39.96
2024-05-09T19:28:30.088Z,39.87
2024-05-09T19:31:00.364Z,40.02
2024-05-09T19:33:28.016Z,39.82
2024-05-09T19:35:58.276Z,39.85
2024-05-09T19:38:25.993Z,39.89
2024-05-09T19:40:56.300Z,40.01
2024-05-09T19:43:24.119Z,40.50
2024-05-09T19:45:57.455Z,40.02
2024-05-09T19:48:25.271Z,41.05
2024-05-09T19:50:55.532Z,40.62
2024-05-09T19:53:23.568Z,40.94
2024-05-09T19:55:53.765Z,41.30
2024-05-09T19:58:21.479Z,41.38
2024-05-09T20:00:51.924Z,41.47
2024-05-09T20:03:22.278Z,41.65
2024-05-09T20:05:52.570Z,41.75
2024-05-09T20:08:20.133Z,41.93
2024-05-09T20:10:50.557Z,42.03
2024-05-09T20:13:18.304Z,41.60
2024-05-09T20:15:48.742Z,41.78
2024-05-09T20:18:18.001Z,42.13
2024-05-09T20:20:53.921Z,42.42
2024-05-09T20:23:22.166Z,42.63
2024-05-09T20:25:52.371Z,42.70
2024-05-09T20:28:20.065Z,43.17
2024-05-09T20:30:50.426Z,43.46
2024-05-09T20:33:18.019Z,43.84
2024-05-09T20:35:51.542Z,43.93
2024-05-09T20:38:19.085Z,44.17
2024-05-09T20:40:49.484Z,44.42
2024-05-09T20:43:17.393Z,44.79
2024-05-09T20:45:47.649Z,45.05
2024-05-09T20:48:15.573Z,45.40
2024-05-09T20:50:45.968Z,45.64
2024-05-09T20:53:16.495Z,45.82
2024-05-09T20:55:47.160Z,46.41
2024-05-09T20:58:14.845Z,46.40
2024-05-09T21:00:46.695Z,46.85
2024-05-09T21:03:16.490Z,47.27
2024-05-09T21:05:48.656Z,47.31
2024-05-09T21:08:19.812Z,47.33
2024-05-09T21:10:50.286Z,47.65
2024-05-09T21:13:18.051Z,47.76
2024-05-09T21:15:48.417Z,48.18
2024-05-09T21:18:16.167Z,48.18
2024-05-09T21:20:46.466Z,48.34
2024-05-09T21:23:13.985Z,48.93
2024-05-09T21:25:46.813Z,49.08
2024-05-09T21:28:15.157Z,49.36
2024-05-09T21:30:45.387Z,49.42
2024-05-09T21:33:14.436Z,49.84
2024-05-09T21:35:45.989Z,49.61
2024-05-09T21:38:14.761Z,49.88
2024-05-09T21:40:47.887Z,49.68
2024-05-09T21:43:15.784Z,49.90
2024-05-09T21:45:46.111Z,50.36
2024-05-09T21:48:13.812Z,50.12
2024-05-09T21:50:44.489Z,50.63
2024-05-09T21:53:12.834Z,50.44
2024-05-09T21:55:44.254Z,50.47
2024-05-09T21:58:15.101Z,51.07
2024-05-09T22:00:46.506Z,51.11
2024-05-09T22:03:14.579Z,51.40
2024-05-09T22:05:45.298Z,51.30
2024-05-09T22:08:13.570Z,51.02
2024-05-09T22:10:44.052Z,50.96
2024-05-09T22:13:16.088Z,51.08
2024-05-09T22:15:46.370Z,51.11
2024-05-09T22:18:14.151Z,51.15
2024-05-09T22:20:47.445Z,51.42
2024-05-09T22:23:15.733Z,51.52
2024-05-09T22:25:46.218Z,51.63
2024-05-09T22:28:17.750Z,51.65
2024-05-09T22:30:48.299Z,51.55
2024-05-09T22:33:16.291Z,51.61
2024-05-09T22:35:47.562Z,51.61
2024-05-09T22:38:15.211Z,51.68
2024-05-09T22:40:48.778Z,51.40
2024-05-09T22:43:23.212Z,51.69
2024-05-09T22:45:55.652Z,52.00
2024-05-09T22:48:24.778Z,52.41
2024-05-09T22:50:56.060Z,52.70
2024-05-09T22:53:25.202Z,52.40
2024-05-09T22:55:56.216Z,52.25
2024-05-09T22:58:26.511Z,52.86
2024-05-09T23:00:56.724Z,53.11
2024-05-09T23:03:24.564Z,52.88
2024-05-09T23:05:54.827Z,52.92
2024-05-09T23:08:22.370Z,53.13
2024-05-09T23:10:52.669Z,53.19
2024-05-09T23:13:20.452Z,53.02
2024-05-09T23:15:53.332Z,53.47
2024-05-09T23:18:21.039Z,53.83
2024-05-09T23:20:51.800Z,53.66
2024-05-09T23:23:19.448Z,54.15
2024-05-09T23:25:49.735Z,54.11
2024-05-09T23:28:17.369Z,53.78
2024-05-09T23:30:47.636Z,53.95
2024-05-09T23:33:18.083Z,53.83
2024-05-09T23:35:48.434Z,54.34
2024-05-09T23:38:16.040Z,54.34
2024-05-09T23:40:46.241Z,54.00
2024-05-09T23:43:14.035Z,54.22
2024-05-09T23:45:44.786Z,54.15
2024-05-09T23:48:12.710Z,54.70
2024-05-09T23:50:45.718Z,54.71
2024-05-09T23:53:14.442Z,54.54
2024-05-09T23:55:44.688Z,54.70
2024-05-09T23:58:12.358Z,54.96
